createdAt,value
2022-08-19T00:00:45.252Z,81.67
2022-08-19T00:01:45.205Z,81.36
2022-08-19T00:02:50.003Z,81.52
2022-08-19T00:03:45.186Z,81.82
2022-08-19T00:04:45.206Z,81.82
2022-08-19T00:05:45.170Z,81.82
2022-08-19T00:06:45.203Z,82.03
2022-08-19T00:07:45.147Z,81.62
2022-08-19T00:08:45.141Z,81.42
2022-08-19T00:09:45.132Z,81.67
2022-08-19T00:10:45.119Z,81.76
2022-08-19T00:11:45.139Z,81.73
2022-08-19T00:12:46.905Z,81.62
2022-08-19T00:13:45.089Z,81.62
2022-08-19T00:14:45.076Z,81.52
2022-08-19T00:15:45.073Z,81.36
2022-08-19T00:16:45.063Z,81.82
2022-08-19T00:17:45.081Z,81.93
2022-08-19T00:18:45.043Z,81.73
2022-08-19T00:19:45.024Z,82.03
2022-08-19T00:20:45.020Z,81.82
2022-08-19T00:21:45.016Z,82.37
2022-08-19T00:22:45.035Z,82.87
2022-08-19T00:23:44.993Z,82.76
2022-08-19T00:24:50.891Z,82.76
2022-08-19T00:25:48.590Z,82.97
2022-08-19T00:26:44.967Z,83.67
2022-08-19T00:27:45.023Z,83.57
2022-08-19T00:28:44.943Z,83.37
2022-08-19T00:29:44.937Z,83.27
2022-08-19T00:30:44.931Z,83.37
2022-08-19T00:31:44.920Z,84.01
2022-08-19T00:32:44.905Z,83.77
2022-08-19T00:33:44.941Z,83.81
2022-08-19T00:34:44.887Z,84.17
2022-08-19T00:35:44.877Z,83.67
2022-08-19T00:36:44.881Z,84.07
2022-08-19T00:37:44.859Z,83.77
2022-08-19T00:38:44.894Z,84.17
2022-08-19T00:39:44.856Z,84.47
2022-08-19T00:40:44.833Z,84.97
2022-08-19T00:41:46.487Z,84.61
2022-08-19T00:42:44.805Z,84.57
2022-08-19T00:43:44.801Z,84.37
2022-08-19T00:44:44.805Z,84.27
2022-08-19T00:45:44.781Z,84.57
2022-08-19T00:46:44.772Z,84.57
2022-08-19T00:47:45.764Z,84.88
2022-08-19T00:48:44.755Z,84.27
2022-08-19T00:49:44.758Z,83.97
2022-08-19T00:50:51.890Z,83.57
2022-08-19T00:51:45.722Z,84.37
2022-08-19T00:52:44.711Z,84.27
2022-08-19T00:53:44.750Z,84.47
2022-08-19T00:54:44.697Z,84.47
2022-08-19T00:55:44.680Z,84.27
2022-08-19T00:56:44.672Z,84.27
2022-08-19T00:57:44.662Z,84.57
2022-08-19T00:58:44.684Z,84.47
2022-08-19T01:00:00.498Z,84.67
2022-08-19T01:00:45.635Z,84.27
2022-08-19T01:01:44.654Z,84.77
2022-08-19T01:02:44.614Z,84.77
2022-08-19T01:03:57.925Z,84.47
2022-08-19T01:04:45.613Z,84.67
2022-08-19T01:05:44.588Z,84.47
2022-08-19T01:06:44.572Z,84.27
2022-08-19T01:07:44.566Z,85.08
2022-08-19T01:08:44.558Z,84.88
2022-08-19T01:09:44.567Z,85.27
2022-08-19T01:10:44.539Z,85.52
2022-08-19T01:11:44.529Z,85.11
2022-08-19T01:12:44.524Z,85.31
2022-08-19T01:13:50.026Z,85.02
2022-08-19T01:14:45.545Z,85.52
2022-08-19T01:15:44.495Z,85.11
2022-08-19T01:16:44.482Z,85.61
2022-08-19T01:17:44.475Z,86.02
2022-08-19T01:18:44.469Z,86.02
2022-08-19T01:19:44.816Z,86.82
2022-08-19T01:20:44.447Z,86.82
2022-08-19T01:21:44.436Z,86.82
2022-08-19T01:22:44.421Z,86.52
2022-08-19T01:23:44.416Z,86.22
2022-08-19T01:24:49.574Z,86.12
2022-08-19T01:25:45.470Z,85.72
2022-08-19T01:26:44.387Z,86.02
2022-08-19T01:27:44.374Z,86.22
2022-08-19T01:28:44.366Z,85.92
2022-08-19T01:29:44.359Z,85.72
2022-08-19T01:30:44.610Z,85.72
2022-08-19T01:31:45.432Z,85.92
2022-08-19T01:32:44.441Z,85.61
2022-08-19T01:33:44.315Z,85.22
2022-08-19T01:34:44.302Z,84.37
2022-08-19T01:35:44.335Z,84.67
2022-08-19T01:36:44.286Z,84.51
2022-08-19T01:37:44.279Z,85.31
2022-08-19T01:38:44.644Z,84.88
2022-08-19T01:39:44.333Z,85.52
2022-08-19T01:40:44.277Z,85.22
2022-08-19T01:41:44.240Z,85.52
2022-08-19T01:42:44.226Z,85.52
2022-08-19T01:44:09.985Z,84.57
2022-08-19T01:44:45.207Z,85.02
2022-08-19T01:45:44.199Z,84.27
2022-08-19T01:46:44.203Z,84.97
2022-08-19T01:47:44.181Z,85.31
2022-08-19T01:48:45.170Z,85.02
2022-08-19T01:49:44.175Z,84.91
2022-08-19T01:50:44.165Z,84.91
2022-08-19T01:51:44.157Z,84.37
2022-08-19T01:52:44.136Z,84.71
2022-08-19T01:53:44.121Z,85.22
2022-08-19T01:54:44.112Z,85.11
2022-08-19T01:55:44.104Z,84.47
2022-08-19T01:56:44.113Z,84.71
2022-08-19T01:57:45.081Z,84.47
2022-08-19T01:58:44.071Z,84.31
2022-08-19T01:59:44.067Z,84.47
2022-08-19T02:00:44.055Z,84.91
2022-08-19T02:01:44.059Z,84.57
2022-08-19T02:02:44.297Z,84.47
2022-08-19T02:03:44.031Z,84.61
2022-08-19T02:04:44.013Z,84.47
2022-08-19T02:05:44.008Z,84.57
2022-08-19T02:06:43.999Z,84.51
2022-08-19T02:07:44.004Z,84.47
2022-08-19T02:08:43.979Z,84.67
2022-08-19T02:09:43.966Z,84.21
2022-08-19T02:10:43.959Z,84.51
2022-08-19T02:11:43.943Z,84.21
2022-08-19T02:12:43.981Z,84.81
2022-08-19T02:13:43.930Z,85.66
2022-08-19T02:14:43.916Z,85.36
2022-08-19T02:15:43.906Z,85.36
2022-08-19T02:16:43.889Z,85.36
2022-08-19T02:17:43.884Z,85.25
2022-08-19T02:18:43.892Z,84.51
2022-08-19T02:19:43.863Z,85.22
2022-08-19T02:20:43.856Z,85.52
2022-08-19T02:21:43.846Z,85.02
2022-08-19T02:22:43.838Z,85.52
2022-08-19T02:23:43.843Z,85.41
2022-08-19T02:24:43.818Z,84.41
2022-08-19T02:25:43.817Z,84.27
2022-08-19T02:26:43.801Z,84.51
2022-08-19T02:27:43.790Z,84.61
2022-08-19T02:28:43.817Z,84.61
2022-08-19T02:29:43.779Z,84.45
2022-08-19T02:30:43.759Z,84.45
2022-08-19T02:31:43.752Z,84.51
2022-08-19T02:32:44.814Z,84.95
2022-08-19T02:33:43.735Z,84.65
2022-08-19T02:34:43.727Z,85.16
2022-08-19T02:35:44.710Z,84.65
2022-08-19T02:36:43.697Z,84.85
2022-08-19T02:37:43.688Z,84.85
2022-08-19T02:38:47.029Z,85.46
2022-08-19T02:39:44.718Z,84.65
2022-08-19T02:40:43.657Z,85.25
2022-08-19T02:41:43.650Z,84.75
2022-08-19T02:42:43.642Z,84.65
2022-08-19T02:44:11.454Z,84.75
2022-08-19T02:44:44.633Z,84.65
2022-08-19T02:45:43.611Z,84.85
2022-08-19T02:46:43.600Z,84.25
2022-08-19T02:47:43.602Z,85.36
2022-08-19T02:48:43.577Z,84.75
2022-08-19T02:49:43.574Z,84.75
2022-08-19T02:50:53.348Z,84.55
2022-08-19T02:51:44.564Z,84.65
2022-08-19T02:52:43.546Z,84.55
2022-08-19T02:53:43.535Z,83.75
2022-08-19T02:54:43.524Z,83.95
2022-08-19T02:55:45.972Z,83.85
2022-08-19T02:56:43.505Z,84.45
2022-08-19T02:57:43.496Z,84.45
2022-08-19T02:58:43.494Z,84.75
2022-08-19T02:59:43.475Z,84.85
2022-08-19T03:00:43.496Z,84.15
2022-08-19T03:01:43.545Z,83.95
2022-08-19T03:02:43.448Z,83.85
2022-08-19T03:03:43.440Z,83.75
2022-08-19T03:04:43.428Z,83.65
2022-08-19T03:05:56.214Z,83.75
2022-08-19T03:06:44.409Z,84.05
2022-08-19T03:07:43.401Z,83.95
2022-08-19T03:08:43.389Z,84.05
2022-08-19T03:09:43.377Z,84.09
2022-08-19T03:10:43.366Z,83.49
2022-08-19T03:11:43.375Z,83.85
2022-08-19T03:12:43.349Z,83.49
2022-08-19T03:13:43.341Z,83.65
2022-08-19T03:14:43.328Z,82.98
2022-08-19T03:15:43.315Z,83.65
2022-08-19T03:16:43.318Z,83.69
2022-08-19T03:17:43.297Z,82.84
2022-08-19T03:18:43.283Z,82.45
2022-08-19T03:19:43.277Z,82.14
2022-08-19T03:20:43.267Z,81.74
2022-08-19T03:21:43.275Z,80.94
2022-08-19T03:22:43.244Z,81.04
2022-08-19T03:23:43.235Z,81.04
2022-08-19T03:24:43.222Z,80.94
2022-08-19T03:25:43.219Z,80.74
2022-08-19T03:26:43.248Z,80.60
2022-08-19T03:27:43.195Z,79.83
2022-08-19T03:28:43.201Z,81.14
2022-08-19T03:29:44.201Z,80.43
2022-08-19T03:30:43.660Z,80.54
2022-08-19T03:31:51.088Z,80.24
2022-08-19T03:32:45.314Z,80.24
2022-08-19T03:33:43.137Z,80.33
2022-08-19T03:34:43.127Z,80.74
2022-08-19T03:35:43.119Z,80.17
2022-08-19T03:36:43.108Z,80.43
2022-08-19T03:37:43.125Z,80.04
2022-08-19T03:38:43.158Z,79.83
2022-08-19T03:39:43.134Z,80.33
2022-08-19T03:40:43.073Z,80.43
2022-08-19T03:41:44.615Z,79.63
2022-08-19T03:42:56.774Z,80.04
2022-08-19T03:43:44.048Z,79.93
2022-08-19T03:44:43.035Z,79.73
2022-08-19T03:45:43.025Z,80.04
2022-08-19T03:46:44.615Z,79.73
2022-08-19T03:47:43.024Z,79.93
2022-08-19T03:50:08.870Z,80.04
2022-08-19T03:51:08.881Z,79.73
2022-08-19T03:52:08.878Z,79.60
2022-08-19T03:53:08.899Z,79.69
2022-08-19T03:54:08.866Z,79.13
2022-08-19T03:55:08.839Z,79.43
2022-08-19T03:56:08.841Z,79.43
2022-08-19T03:57:08.828Z,79.23
2022-08-19T03:58:08.820Z,79.33
2022-08-19T03:59:09.949Z,79.63
2022-08-19T04:00:13.421Z,79.43
2022-08-19T04:01:09.950Z,79.73
2022-08-19T04:02:09.941Z,79.93
2022-08-19T04:03:09.900Z,79.53
2022-08-19T04:04:09.908Z,79.87
2022-08-19T04:05:09.884Z,79.87
2022-08-19T04:06:09.870Z,80.17
2022-08-19T04:07:09.863Z,80.37
2022-08-19T04:08:13.749Z,80.37
2022-08-19T04:09:10.882Z,80.47
2022-08-19T04:10:10.698Z,80.88
2022-08-19T04:11:09.820Z,80.57
2022-08-19T04:12:09.813Z,79.97
2022-08-19T04:13:09.805Z,79.83
2022-08-19T04:14:09.809Z,79.47
2022-08-19T04:15:09.807Z,79.83
2022-08-19T04:16:09.777Z,78.86
2022-08-19T04:17:09.769Z,79.13
2022-08-19T04:18:09.760Z,78.93
2022-08-19T04:19:09.768Z,79.13
2022-08-19T04:20:09.754Z,79.43
2022-08-19T04:21:09.733Z,78.53
2022-08-19T04:22:09.763Z,78.63
2022-08-19T04:23:09.708Z,78.83
2022-08-19T04:24:09.714Z,79.03
2022-08-19T04:25:09.708Z,79.33
2022-08-19T04:26:09.678Z,78.69
2022-08-19T04:27:10.671Z,77.69
2022-08-19T04:28:09.663Z,77.92
2022-08-19T04:29:12.576Z,77.99
2022-08-19T04:30:10.660Z,77.89
2022-08-19T04:31:09.653Z,77.79
2022-08-19T04:32:09.965Z,78.39
2022-08-19T04:33:10.615Z,78.99
2022-08-19T04:34:09.612Z,79.09
2022-08-19T04:35:16.920Z,79.19
2022-08-19T04:36:10.605Z,79.09
2022-08-19T04:37:09.572Z,79.80
2022-08-19T04:38:09.565Z,79.80
2022-08-19T04:39:09.570Z,79.90
2022-08-19T04:40:09.728Z,80.30
2022-08-19T04:41:09.539Z,79.75
2022-08-19T04:42:09.528Z,80.36
2022-08-19T04:43:09.517Z,80.46
2022-08-19T04:44:09.524Z,81.10
2022-08-19T04:45:09.590Z,80.80
2022-08-19T04:46:09.491Z,80.90
2022-08-19T04:47:11.277Z,80.66
2022-08-19T04:48:27.289Z,80.19
2022-08-19T04:49:13.701Z,79.29
2022-08-19T04:50:09.456Z,79.33
2022-08-19T04:51:09.441Z,78.99
2022-08-19T04:52:09.466Z,80.43
2022-08-19T04:53:09.425Z,80.13
2022-08-19T04:54:09.420Z,80.33
2022-08-19T04:55:09.432Z,80.74
2022-08-19T04:56:09.404Z,80.74
2022-08-19T04:57:09.511Z,81.74
2022-08-19T04:58:09.380Z,81.94
2022-08-19T04:59:09.374Z,81.74
2022-08-19T05:00:09.383Z,81.74
2022-08-19T05:01:09.414Z,81.34
2022-08-19T05:02:09.361Z,80.74
2022-08-19T05:03:09.332Z,80.94
2022-08-19T05:04:09.328Z,81.14
2022-08-19T05:05:09.336Z,80.94
2022-08-19T05:06:09.305Z,80.94
2022-08-19T05:07:09.295Z,80.74
2022-08-19T05:08:09.290Z,80.24
2022-08-19T05:09:09.278Z,80.50
2022-08-19T05:10:09.280Z,80.10
2022-08-19T05:11:09.260Z,80.40
2022-08-19T05:12:09.249Z,79.80
2022-08-19T05:13:09.243Z,79.69
2022-08-19T05:14:09.248Z,80.33
2022-08-19T05:15:09.246Z,80.74
2022-08-19T05:16:09.203Z,80.54
2022-08-19T05:17:26.662Z,80.33
2022-08-19T05:18:11.187Z,80.10
2022-08-19T05:19:09.177Z,79.69
2022-08-19T05:20:09.230Z,79.60
2022-08-19T05:21:09.162Z,79.73
2022-08-19T05:22:09.151Z,80.07
2022-08-19T05:23:09.141Z,80.37
2022-08-19T05:24:10.133Z,81.21
2022-08-19T05:25:12.918Z,81.76
2022-08-19T05:26:10.150Z,82.66
2022-08-19T05:27:09.102Z,83.06
2022-08-19T05:28:09.087Z,82.66
2022-08-19T05:29:09.081Z,82.06
2022-08-19T05:30:09.107Z,81.76
2022-08-19T05:31:09.077Z,81.72
2022-08-19T05:32:09.052Z,81.52
2022-08-19T05:33:09.042Z,80.98
2022-08-19T05:34:18.457Z,81.07
2022-08-19T05:35:10.041Z,80.24
2022-08-19T05:36:09.034Z,79.73
2022-08-19T05:37:09.006Z,79.29
2022-08-19T05:38:08.998Z,78.99
2022-08-19T05:39:08.989Z,78.75
2022-08-19T05:40:09.183Z,76.98
2022-08-19T05:41:08.997Z,77.45
2022-08-19T05:42:08.958Z,76.45
2022-08-19T05:43:08.946Z,76.31
2022-08-19T05:44:08.939Z,75.71
2022-08-19T05:45:08.928Z,75.57
2022-08-19T05:46:08.948Z,75.67
2022-08-19T05:47:08.909Z,73.97
2022-08-19T05:48:08.898Z,74.57
2022-08-19T05:49:08.891Z,75.27
2022-08-19T05:50:08.880Z,75.17
2022-08-19T05:51:08.897Z,74.33
2022-08-19T05:52:08.861Z,73.93
2022-08-19T05:53:08.854Z,74.43
2022-08-19T05:54:08.842Z,73.50
2022-08-19T05:55:08.839Z,73.50
2022-08-19T05:56:08.839Z,73.26
2022-08-19T05:57:08.814Z,73.10
2022-08-19T05:58:08.829Z,72.96
2022-08-19T05:59:08.795Z,72.46
2022-08-19T06:00:08.783Z,72.66
2022-08-19T06:01:08.822Z,72.16
2022-08-19T06:02:08.802Z,71.73
2022-08-19T06:03:12.525Z,71.53
2022-08-19T06:04:08.749Z,71.39
2022-08-19T06:05:08.734Z,70.92
2022-08-19T06:06:08.773Z,70.29
2022-08-19T06:07:12.172Z,70.56
2022-08-19T06:08:08.704Z,70.86
2022-08-19T06:09:08.703Z,69.82
2022-08-19T06:10:08.697Z,69.76
2022-08-19T06:11:08.682Z,69.86
2022-08-19T06:12:08.691Z,69.43
2022-08-19T06:13:08.666Z,68.79
2022-08-19T06:14:09.650Z,68.99
2022-08-19T06:15:09.645Z,68.99
2022-08-19T06:16:08.635Z,69.29
2022-08-19T06:17:08.640Z,68.16
2022-08-19T06:18:08.617Z,68.16
2022-08-19T06:19:08.608Z,68.46
2022-08-19T06:20:08.606Z,67.83
2022-08-19T06:21:08.607Z,67.66
2022-08-19T06:22:08.648Z,67.63
2022-08-19T06:23:08.570Z,67.30
2022-08-19T06:24:08.559Z,67.10
2022-08-19T06:25:08.552Z,66.37
2022-08-19T06:26:08.544Z,66.17
2022-08-19T06:27:08.551Z,65.84
2022-08-19T06:28:15.934Z,65.74
2022-08-19T06:29:10.511Z,64.75
2022-08-19T06:30:09.499Z,63.98
2022-08-19T06:31:08.494Z,63.95
2022-08-19T06:32:08.512Z,62.66
2022-08-19T06:33:08.472Z,62.99
2022-08-19T06:34:08.477Z,64.01
2022-08-19T06:35:08.465Z,64.48
2022-08-19T06:36:08.443Z,64.12
2022-08-19T06:37:08.476Z,64.61
2022-08-19T06:38:08.433Z,63.69
2022-08-19T06:39:08.422Z,64.18
2022-08-19T06:40:08.453Z,63.98
2022-08-19T06:41:08.442Z,64.12
2022-08-19T06:42:10.310Z,63.98
2022-08-19T06:43:09.369Z,63.36
2022-08-19T06:44:08.390Z,62.69
2022-08-19T06:45:09.344Z,64.64
2022-08-19T06:46:08.346Z,66.30
2022-08-19T06:47:09.644Z,67.07
2022-08-19T06:48:09.342Z,66.30
2022-08-19T06:49:08.342Z,65.24
2022-08-19T06:50:08.318Z,65.21
2022-08-19T06:51:08.603Z,63.29
2022-08-19T06:52:08.290Z,62.30
2022-08-19T06:53:08.308Z,61.68
2022-08-19T06:54:08.417Z,61.35
2022-08-19T06:55:09.263Z,60.75
2022-08-19T06:56:08.252Z,60.49
2022-08-19T06:57:08.243Z,61.08
2022-08-19T06:58:08.272Z,61.01
2022-08-19T06:59:08.221Z,62.34
2022-08-19T07:00:12.244Z,62.43
2022-08-19T07:01:09.210Z,62.86
2022-08-19T07:02:08.234Z,64.01
2022-08-19T07:03:08.918Z,64.25
2022-08-19T07:04:09.171Z,64.64
2022-08-19T07:05:08.165Z,65.97
2022-08-19T07:06:09.807Z,65.67
2022-08-19T07:07:19.707Z,66.07
2022-08-19T07:08:09.160Z,66.17
2022-08-19T07:09:08.125Z,66.07
2022-08-19T07:10:08.115Z,66.27
2022-08-19T07:11:09.370Z,65.67
2022-08-19T07:12:08.095Z,65.80
2022-08-19T07:13:08.122Z,67.30
2022-08-19T07:14:19.068Z,67.73
2022-08-19T07:15:09.066Z,67.80
2022-08-19T07:16:08.067Z,67.93
2022-08-19T07:17:08.050Z,70.53
2022-08-19T07:18:08.069Z,70.49
2022-08-19T07:19:15.544Z,72.03
2022-08-19T07:20:09.462Z,73.26
2022-08-19T07:21:09.378Z,73.86
2022-08-19T07:22:08.001Z,74.37
2022-08-19T07:23:09.036Z,74.96
2022-08-19T07:24:08.007Z,73.72
2022-08-19T07:25:08.005Z,74.13
2022-08-19T07:26:07.965Z,73.36
2022-08-19T07:27:10.617Z,74.16
2022-08-19T07:28:08.941Z,74.03
2022-08-19T07:29:08.948Z,74.06
2022-08-19T07:30:07.922Z,74.03
2022-08-19T07:31:07.912Z,73.63
2022-08-19T07:32:07.927Z,73.53
2022-08-19T07:33:08.924Z,72.53
2022-08-19T07:34:07.897Z,72.76
2022-08-19T07:35:07.894Z,73.76
2022-08-19T07:36:07.865Z,74.13
2022-08-19T07:37:07.858Z,73.36
2022-08-19T07:38:07.853Z,73.13
2022-08-19T07:39:07.857Z,72.72
2022-08-19T07:40:07.948Z,73.63
2022-08-19T07:41:07.820Z,73.43
2022-08-19T07:42:07.871Z,72.99
2022-08-19T07:43:10.191Z,72.56
2022-08-19T07:44:08.819Z,71.76
2022-08-19T07:45:07.785Z,71.22
2022-08-19T07:47:07.760Z,70.42
2022-08-19T07:48:08.768Z,70.62
2022-08-19T07:49:07.775Z,69.89
2022-08-19T07:50:08.658Z,69.56
2022-08-19T07:51:07.723Z,68.96
2022-08-19T07:52:07.714Z,69.86
2022-08-19T07:53:07.707Z,69.69
2022-08-19T07:54:07.694Z,69.79
2022-08-19T07:55:07.705Z,69.62
2022-08-19T07:56:08.683Z,70.39
2022-08-19T07:57:07.699Z,70.32
2022-08-19T07:58:07.725Z,71.56
2022-08-19T07:59:07.735Z,71.56
2022-08-19T08:00:07.719Z,71.36
2022-08-19T08:01:07.632Z,71.16
2022-08-19T08:02:07.673Z,71.26
2022-08-19T08:03:07.619Z,71.79
2022-08-19T08:04:07.608Z,72.09
2022-08-19T08:05:07.625Z,72.49
2022-08-19T08:06:07.616Z,72.56
2022-08-19T08:07:07.575Z,71.86
2022-08-19T08:08:07.568Z,71.42
2022-08-19T08:09:07.575Z,70.92
2022-08-19T08:10:12.618Z,71.96
2022-08-19T08:11:08.538Z,70.72
2022-08-19T08:12:32.972Z,70.12
2022-08-19T08:13:11.035Z,69.79
2022-08-19T08:14:07.509Z,70.39
2022-08-19T08:15:08.570Z,70.29
2022-08-19T08:16:07.494Z,69.46
2022-08-19T08:17:10.863Z,68.46
2022-08-19T08:18:07.479Z,68.26
2022-08-19T08:19:14.755Z,69.13
2022-08-19T08:20:08.518Z,67.13
2022-08-19T08:21:07.444Z,67.73
2022-08-19T08:22:07.437Z,68.13
2022-08-19T08:23:07.436Z,68.03
2022-08-19T08:24:07.423Z,67.83
2022-08-19T08:25:07.408Z,67.63
2022-08-19T08:26:07.416Z,67.83
2022-08-19T08:27:11.088Z,67.36
2022-08-19T08:28:07.379Z,66.96
2022-08-19T08:29:12.261Z,67.63
2022-08-19T08:30:08.357Z,67.83
2022-08-19T08:31:09.418Z,67.73
2022-08-19T08:32:14.831Z,67.93
2022-08-19T08:33:08.380Z,67.73
2022-08-19T08:34:07.320Z,67.33
2022-08-19T08:35:07.309Z,67.60
2022-08-19T08:36:07.315Z,66.70
2022-08-19T08:37:07.289Z,66.67
2022-08-19T08:38:07.301Z,66.77
2022-08-19T08:39:07.267Z,66.53
2022-08-19T08:40:08.996Z,65.64
2022-08-19T08:41:08.276Z,65.14
2022-08-19T08:42:09.903Z,65.05
2022-08-19T08:43:07.264Z,64.25
2022-08-19T08:44:07.218Z,64.34
2022-08-19T08:45:07.250Z,65.94
2022-08-19T08:46:07.562Z,64.61
2022-08-19T08:47:07.922Z,64.75
2022-08-19T08:48:07.182Z,65.94
2022-08-19T08:49:08.172Z,64.04
2022-08-19T08:50:07.158Z,64.15
2022-08-19T08:51:07.150Z,65.24
2022-08-19T08:52:07.158Z,64.45
2022-08-19T08:53:07.136Z,64.58
2022-08-19T08:54:07.124Z,64.61
2022-08-19T08:55:10.096Z,65.61
2022-08-19T08:56:08.103Z,65.83
2022-08-19T08:57:07.114Z,66.50
2022-08-19T08:58:07.092Z,65.80
2022-08-19T08:59:07.080Z,67.60
2022-08-19T09:00:07.068Z,66.83
2022-08-19T09:01:08.105Z,65.91
2022-08-19T09:02:07.062Z,67.00
2022-08-19T09:03:07.037Z,67.33
2022-08-19T09:04:07.043Z,67.13
2022-08-19T09:05:07.020Z,67.26
2022-08-19T09:06:12.087Z,67.80
2022-08-19T09:07:18.195Z,68.26
2022-08-19T09:08:07.986Z,68.66
2022-08-19T09:09:12.227Z,68.06
2022-08-19T09:10:07.973Z,68.96
2022-08-19T09:11:06.961Z,67.60
2022-08-19T09:12:06.990Z,66.60
2022-08-19T09:13:09.237Z,66.80
2022-08-19T09:14:06.934Z,66.70
2022-08-19T09:15:06.930Z,67.19
2022-08-19T09:16:06.916Z,67.76
2022-08-19T09:17:06.907Z,66.20
2022-08-19T09:18:07.048Z,64.51
2022-08-19T09:19:06.887Z,64.97
2022-08-19T09:20:09.176Z,64.97
2022-08-19T09:21:06.867Z,64.94
2022-08-19T09:22:06.862Z,63.95
2022-08-19T09:23:06.860Z,64.25
2022-08-19T09:24:06.840Z,63.25
2022-08-19T09:25:06.831Z,63.75
2022-08-19T09:26:06.821Z,63.68
2022-08-19T09:27:08.411Z,63.85
2022-08-19T09:28:15.077Z,64.75
2022-08-19T09:29:07.787Z,64.12
2022-08-19T09:30:06.790Z,63.22
2022-08-19T09:31:06.779Z,63.62
2022-08-19T09:32:06.761Z,64.22
2022-08-19T09:33:07.769Z,64.01
2022-08-19T09:34:06.741Z,64.01
2022-08-19T09:35:08.898Z,63.32
2022-08-19T09:36:08.694Z,63.69
2022-08-19T09:37:06.708Z,63.92
2022-08-19T09:38:06.743Z,62.49
2022-08-19T09:39:16.181Z,62.46
2022-08-19T09:40:07.744Z,61.87
2022-08-19T09:41:06.689Z,61.96
2022-08-19T09:42:06.665Z,62.89
2022-08-19T09:43:10.064Z,62.23
2022-08-19T09:44:07.645Z,61.99
2022-08-19T09:45:10.212Z,61.47
2022-08-19T09:46:06.627Z,61.69
2022-08-19T09:47:06.617Z,61.87
2022-08-19T09:48:06.608Z,60.97
2022-08-19T09:49:06.952Z,62.69
2022-08-19T09:50:06.668Z,62.26
2022-08-19T09:51:06.580Z,61.57
2022-08-19T09:52:06.576Z,60.94
2022-08-19T09:53:06.862Z,61.10
2022-08-19T09:54:06.569Z,62.23
2022-08-19T09:55:07.212Z,62.79
2022-08-19T09:56:06.533Z,61.99
2022-08-19T09:57:07.666Z,62.19
2022-08-19T09:58:06.516Z,62.92
2022-08-19T09:59:06.528Z,62.92
2022-08-19T10:00:06.516Z,62.82
2022-08-19T10:01:06.560Z,62.62
2022-08-19T10:02:11.029Z,62.79
2022-08-19T10:03:07.205Z,62.10
2022-08-19T10:04:14.694Z,61.99
2022-08-19T10:05:08.456Z,62.02
2022-08-19T10:06:15.112Z,62.23
2022-08-19T10:07:07.512Z,61.80
2022-08-19T10:08:06.422Z,62.92
2022-08-19T10:09:09.025Z,62.19
2022-08-19T10:10:06.402Z,62.40
2022-08-19T10:11:28.747Z,61.10
2022-08-19T10:12:11.263Z,62.32
2022-08-19T10:13:06.369Z,62.42
2022-08-19T10:14:06.360Z,63.05
2022-08-19T10:15:06.383Z,63.02
2022-08-19T10:16:06.345Z,63.38
2022-08-19T10:17:19.258Z,63.95
2022-08-19T10:18:07.348Z,63.82
2022-08-19T10:19:06.317Z,63.22
2022-08-19T10:20:06.326Z,62.32
2022-08-19T10:21:06.299Z,61.13
2022-08-19T10:22:06.296Z,61.20
2022-08-19T10:23:06.282Z,61.77
2022-08-19T10:24:06.271Z,61.27
2022-08-19T10:25:06.275Z,61.37
2022-08-19T10:26:06.285Z,61.67
2022-08-19T10:27:06.246Z,61.50
2022-08-19T10:28:06.233Z,62.13
2022-08-19T10:29:06.225Z,62.99
2022-08-19T10:30:09.891Z,61.13
2022-08-19T10:31:06.201Z,62.42
2022-08-19T10:32:09.456Z,61.99
2022-08-19T10:33:10.853Z,61.40
2022-08-19T10:34:10.004Z,60.64
2022-08-19T10:35:06.246Z,60.70
2022-08-19T10:36:06.169Z,62.72
2022-08-19T10:37:06.144Z,62.42
2022-08-19T10:38:06.289Z,62.13
2022-08-19T10:39:06.124Z,62.02
2022-08-19T10:40:06.200Z,62.10
2022-08-19T10:41:06.106Z,61.67
2022-08-19T10:42:06.099Z,61.74
2022-08-19T10:43:06.093Z,59.62
2022-08-19T10:44:06.080Z,59.05
2022-08-19T10:45:06.108Z,59.55
2022-08-19T10:46:06.058Z,59.89
2022-08-19T10:47:17.596Z,57.60
2022-08-19T10:48:07.043Z,58.17
2022-08-19T10:49:07.033Z,57.06
2022-08-19T10:50:06.052Z,57.35
2022-08-19T10:51:06.014Z,58.15
2022-08-19T10:52:06.006Z,57.28
2022-08-19T10:53:08.112Z,58.37
2022-08-19T10:54:06.883Z,58.13
2022-08-19T10:55:08.675Z,59.42
2022-08-19T10:56:05.964Z,59.75
2022-08-19T10:57:05.953Z,60.82
2022-08-19T10:58:06.206Z,59.72
2022-08-19T10:59:05.937Z,60.31
2022-08-19T11:00:05.928Z,58.62
2022-08-19T11:01:06.000Z,59.39
2022-08-19T11:02:05.913Z,58.80
2022-08-19T11:03:05.898Z,57.51
2022-08-19T11:04:05.896Z,57.81
2022-08-19T11:05:12.726Z,57.73
2022-08-19T11:06:06.885Z,58.40
2022-08-19T11:07:05.862Z,57.38
2022-08-19T11:08:22.634Z,56.88
2022-08-19T11:09:06.842Z,57.85
2022-08-19T11:10:08.333Z,56.73
2022-08-19T11:11:05.839Z,57.23
2022-08-19T11:12:05.822Z,56.85
2022-08-19T11:13:05.805Z,55.15
2022-08-19T11:14:05.801Z,56.23
2022-08-19T11:15:05.786Z,56.21
2022-08-19T11:16:07.831Z,55.54
2022-08-19T11:17:06.767Z,56.78
2022-08-19T11:18:05.761Z,56.98
2022-08-19T11:19:06.748Z,55.74
2022-08-19T11:20:06.676Z,54.72
2022-08-19T11:21:05.760Z,54.07
2022-08-19T11:22:05.723Z,53.28
2022-08-19T11:23:05.718Z,54.69
2022-08-19T11:24:05.708Z,55.34
2022-08-19T11:25:05.701Z,56.23
2022-08-19T11:26:05.687Z,55.58
2022-08-19T11:27:05.692Z,52.88
2022-08-19T11:28:05.678Z,51.25
2022-08-19T11:29:05.661Z,51.32
2022-08-19T11:30:07.932Z,51.82
2022-08-19T11:31:05.651Z,52.01
2022-08-19T11:32:05.647Z,51.35
2022-08-19T11:33:05.623Z,51.37
2022-08-19T11:34:05.624Z,51.18
2022-08-19T11:35:05.604Z,51.05
2022-08-19T11:36:05.596Z,51.97
2022-08-19T11:37:05.607Z,51.77
2022-08-19T11:38:09.715Z,50.85
2022-08-19T11:39:06.571Z,48.96
2022-08-19T11:40:05.674Z,49.15
2022-08-19T11:41:05.551Z,49.96
2022-08-19T11:42:05.584Z,49.40
2022-08-19T11:43:05.551Z,49.25
2022-08-19T11:44:05.532Z,49.87
2022-08-19T11:45:05.513Z,51.18
2022-08-19T11:46:05.508Z,50.66
2022-08-19T11:47:08.842Z,50.31
2022-08-19T11:48:05.487Z,49.13
2022-08-19T11:49:05.473Z,49.30
2022-08-19T11:50:05.469Z,47.70
2022-08-19T11:51:05.451Z,47.75
2022-08-19T11:52:05.443Z,48.32
2022-08-19T11:53:05.803Z,48.51
2022-08-19T11:54:05.427Z,50.85
2022-08-19T11:55:05.418Z,53.28
2022-08-19T11:56:05.400Z,53.80
2022-08-19T11:57:05.398Z,52.88
2022-08-19T11:58:05.411Z,52.29
2022-08-19T11:59:05.381Z,51.35
2022-08-19T12:00:05.365Z,52.83
2022-08-19T12:01:05.369Z,50.83
2022-08-19T12:02:05.355Z,50.43
2022-08-19T12:03:05.383Z,51.18
2022-08-19T12:04:05.489Z,53.33
2022-08-19T12:05:09.032Z,54.62
2022-08-19T12:06:06.325Z,53.66
2022-08-19T12:07:05.308Z,53.75
2022-08-19T12:08:05.335Z,53.66
2022-08-19T12:09:05.286Z,53.48
2022-08-19T12:10:05.280Z,53.75
2022-08-19T12:11:05.265Z,53.48
2022-08-19T12:12:05.258Z,52.31
2022-08-19T12:13:05.255Z,52.07
2022-08-19T12:14:05.253Z,50.63
2022-08-19T12:15:05.229Z,49.49
2022-08-19T12:16:05.222Z,49.25
2022-08-19T12:17:05.212Z,47.97
2022-08-19T12:18:05.208Z,48.04
2022-08-19T12:19:05.307Z,47.50
2022-08-19T12:20:05.189Z,46.62
2022-08-19T12:21:05.177Z,46.79
2022-08-19T12:22:05.167Z,46.28
2022-08-19T12:23:05.158Z,43.89
2022-08-19T12:24:05.248Z,47.33
2022-08-19T12:25:05.136Z,46.81
2022-08-19T12:26:05.130Z,47.11
2022-08-19T12:27:05.133Z,46.81
2022-08-19T12:28:05.137Z,46.64
2022-08-19T12:29:05.131Z,47.47
2022-08-19T12:30:05.093Z,48.09
2022-08-19T12:31:05.086Z,49.22
2022-08-19T12:32:05.073Z,50.26
2022-08-19T12:33:05.061Z,51.45
2022-08-19T12:34:05.073Z,50.21
2022-08-19T12:35:05.047Z,47.99
2022-08-19T12:36:05.058Z,48.58
2022-08-19T12:37:05.027Z,47.89
2022-08-19T12:38:05.017Z,48.07
2022-08-19T12:39:05.025Z,48.27
2022-08-19T12:40:05.022Z,47.87
2022-08-19T12:41:04.991Z,47.75
2022-08-19T12:42:04.985Z,47.65
2022-08-19T12:43:04.970Z,47.97
2022-08-19T12:44:04.972Z,48.68
2022-08-19T12:45:04.952Z,49.99
2022-08-19T12:46:04.943Z,49.69
2022-08-19T12:47:04.934Z,47.81
2022-08-19T12:48:32.819Z,49.22
2022-08-19T12:49:17.495Z,49.72
2022-08-19T12:50:07.036Z,49.54
2022-08-19T12:51:05.897Z,50.26
2022-08-19T12:52:04.885Z,50.56
2022-08-19T12:53:04.879Z,50.73
2022-08-19T12:54:04.907Z,50.21
2022-08-19T12:55:04.861Z,48.71